createdAt,value
2022-10-06T00:00:53.319Z,2.37
2022-10-06T00:03:24.964Z,2.50
2022-10-06T00:05:52.916Z,2.20
2022-10-06T00:08:20.896Z,2.30
2022-10-06T00:10:48.766Z,2.23
2022-10-06T00:13:16.623Z,2.30
2022-10-06T00:15:44.515Z,2.30
2022-10-06T00:18:12.508Z,2.17
2022-10-06T00:20:43.606Z,2.30
2022-10-06T00:23:11.596Z,2.27
2022-10-06T00:25:39.441Z,2.27
2022-10-06T00:28:07.448Z,2.13
2022-10-06T00:30:35.450Z,2.50
2022-10-06T00:33:04.805Z,2.27
2022-10-06T00:35:34.525Z,2.40
2022-10-06T00:38:02.589Z,2.30
2022-10-06T00:40:30.832Z,2.17
2022-10-06T00:42:59.929Z,2.60
2022-10-06T00:45:30.576Z,2.00
2022-10-06T00:48:00.620Z,2.50
2022-10-06T00:50:28.904Z,2.20
2022-10-06T00:52:56.867Z,2.17
2022-10-06T00:55:24.821Z,2.43
2022-10-06T00:57:53.522Z,1.83
2022-10-06T01:00:21.465Z,2.27
2022-10-06T01:02:57.312Z,2.20
2022-10-06T01:05:29.051Z,2.00
2022-10-06T01:07:58.159Z,1.90
2022-10-06T01:10:27.239Z,2.27
2022-10-06T01:12:55.922Z,1.97
2022-10-06T01:15:24.826Z,2.10
2022-10-06T01:18:02.818Z,2.50
2022-10-06T01:20:31.420Z,2.00
2022-10-06T01:23:05.687Z,2.20
2022-10-06T01:25:37.894Z,2.10
2022-10-06T01:28:06.827Z,2.03
2022-10-06T01:30:40.895Z,2.10
2022-10-06T01:33:08.898Z,2.30
2022-10-06T01:35:36.943Z,2.10
2022-10-06T01:38:04.933Z,1.97
2022-10-06T01:40:33.053Z,2.20
2022-10-06T01:43:02.381Z,2.40
2022-10-06T01:45:30.824Z,2.33
2022-10-06T01:47:58.863Z,2.57
2022-10-06T01:50:26.841Z,2.30
2022-10-06T01:52:57.560Z,2.30
2022-10-06T01:55:26.087Z,2.20
2022-10-06T01:57:56.576Z,2.30
2022-10-06T02:00:25.496Z,2.37
2022-10-06T02:02:53.638Z,2.30
2022-10-06T02:05:21.574Z,2.30
2022-10-06T02:07:52.524Z,2.60
2022-10-06T02:10:20.688Z,2.03
2022-10-06T02:12:53.603Z,2.00
2022-10-06T02:15:23.464Z,2.30
2022-10-06T02:17:52.469Z,2.17
2022-10-06T02:20:20.330Z,2.00
2022-10-06T02:22:48.267Z,2.17
2022-10-06T02:25:17.383Z,2.20
2022-10-06T02:27:45.985Z,2.10
2022-10-06T02:30:17.061Z,2.40
2022-10-06T02:32:47.426Z,2.60
2022-10-06T02:35:15.429Z,2.17
2022-10-06T02:37:44.820Z,2.20
2022-10-06T02:40:17.101Z,2.07
2022-10-06T02:42:46.185Z,1.90
2022-10-06T02:45:17.770Z,1.90
2022-10-06T02:47:46.726Z,2.00
2022-10-06T02:50:15.929Z,2.03
2022-10-06T02:52:44.408Z,2.20
2022-10-06T02:55:12.464Z,1.90
2022-10-06T02:57:40.756Z,2.10
2022-10-06T03:00:09.399Z,2.37
2022-10-06T03:02:37.508Z,2.03
2022-10-06T03:05:06.154Z,1.90
2022-10-06T03:07:35.112Z,1.87
2022-10-06T03:10:03.190Z,2.07
2022-10-06T03:12:31.813Z,2.20
2022-10-06T03:14:59.764Z,2.30
2022-10-06T03:17:27.752Z,1.93
2022-10-06T03:19:58.271Z,2.30
2022-10-06T03:22:27.226Z,2.20
2022-10-06T03:24:57.412Z,2.00
2022-10-06T03:27:26.416Z,2.03
2022-10-06T03:29:58.645Z,2.00
2022-10-06T03:32:28.451Z,2.00
2022-10-06T03:34:56.968Z,2.40
2022-10-06T03:37:24.967Z,2.07
2022-10-06T03:39:53.152Z,2.30
2022-10-06T03:42:21.236Z,2.00
2022-10-06T03:44:49.297Z,1.97
2022-10-06T03:47:17.778Z,2.10
2022-10-06T03:49:47.056Z,2.00
2022-10-06T03:52:16.689Z,1.80
2022-10-06T03:54:45.383Z,2.00
2022-10-06T03:57:13.252Z,2.03
2022-10-06T03:59:41.513Z,2.00
2022-10-06T04:02:11.568Z,1.80
2022-10-06T04:04:40.052Z,1.90
2022-10-06T04:07:12.380Z,2.17
2022-10-06T04:09:41.128Z,2.10
2022-10-06T04:12:10.991Z,2.10
2022-10-06T04:14:40.083Z,2.10
2022-10-06T04:17:09.238Z,1.90
2022-10-06T04:19:41.848Z,1.90
2022-10-06T04:22:09.837Z,1.90
2022-10-06T04:24:38.097Z,1.90
2022-10-06T04:27:24.401Z,1.83
2022-10-06T04:30:01.631Z,2.13
2022-10-06T04:32:30.763Z,1.90
2022-10-06T04:34:58.665Z,1.83
2022-10-06T04:37:29.186Z,1.90
2022-10-06T04:39:57.802Z,1.83
2022-10-06T04:42:26.332Z,1.90
2022-10-06T04:44:54.631Z,2.00
2022-10-06T04:47:22.840Z,2.20
2022-10-06T04:49:51.489Z,2.03
2022-10-06T04:52:19.676Z,2.00
2022-10-06T04:54:47.560Z,2.13
2022-10-06T04:57:15.617Z,2.53
2022-10-06T05:00:07.861Z,2.27
2022-10-06T05:02:37.414Z,2.10
2022-10-06T05:05:08.188Z,2.00
2022-10-06T05:07:36.228Z,2.30
2022-10-06T05:10:04.087Z,1.97
2022-10-06T05:12:32.560Z,1.83
2022-10-06T05:15:00.499Z,2.00
2022-10-06T05:17:28.899Z,1.80
2022-10-06T05:19:56.760Z,1.97
2022-10-06T05:22:24.795Z,2.00
2022-10-06T05:24:54.111Z,1.93
2022-10-06T05:27:21.958Z,2.23
2022-10-06T05:29:49.894Z,2.07
2022-10-06T05:32:18.322Z,1.90
2022-10-06T05:34:46.275Z,2.00
2022-10-06T05:37:14.218Z,2.10
2022-10-06T05:39:42.224Z,2.13
2022-10-06T05:42:09.992Z,2.10
2022-10-06T05:44:39.800Z,2.10
2022-10-06T05:47:11.012Z,1.90
2022-10-06T05:49:39.207Z,2.30
2022-10-06T05:52:07.375Z,2.00
2022-10-06T05:54:37.175Z,2.40
2022-10-06T05:57:06.884Z,2.20
2022-10-06T05:59:35.515Z,2.10
2022-10-06T06:02:05.205Z,2.00
2022-10-06T06:04:38.371Z,2.00
2022-10-06T06:07:06.649Z,2.20
2022-10-06T06:09:34.817Z,2.03
2022-10-06T06:12:04.822Z,2.10
2022-10-06T06:15:11.613Z,2.20
2022-10-06T06:17:48.113Z,2.00
2022-10-06T06:20:16.111Z,2.10
2022-10-06T06:22:44.340Z,1.90
2022-10-06T06:25:13.245Z,2.03
2022-10-06T06:27:43.457Z,1.87
2022-10-06T06:30:12.342Z,2.03
2022-10-06T06:32:41.226Z,1.73
2022-10-06T06:35:09.664Z,2.03
2022-10-06T06:37:38.075Z,1.80
2022-10-06T06:40:06.788Z,2.10
2022-10-06T06:42:38.118Z,1.83
2022-10-06T06:45:24.410Z,2.10
2022-10-06T06:48:16.237Z,2.23
2022-10-06T06:50:46.228Z,2.10
2022-10-06T06:53:16.370Z,1.90
2022-10-06T06:55:51.198Z,2.00
2022-10-06T06:58:22.510Z,2.13
2022-10-06T07:00:51.343Z,2.10
2022-10-06T07:03:38.586Z,1.87
2022-10-06T07:06:10.714Z,1.90
2022-10-06T07:08:42.992Z,2.37
2022-10-06T07:11:19.028Z,2.63
2022-10-06T07:13:48.121Z,2.47
2022-10-06T07:16:35.389Z,3.00
2022-10-06T07:19:24.876Z,3.53
2022-10-06T07:22:17.212Z,4.00
2022-10-06T07:25:04.218Z,3.13
2022-10-06T07:27:33.289Z,2.33
2022-10-06T07:30:01.149Z,2.30
2022-10-06T07:32:31.438Z,2.00
2022-10-06T07:35:01.049Z,2.10
2022-10-06T07:37:29.401Z,2.03
2022-10-06T07:39:59.314Z,2.30
2022-10-06T07:42:27.353Z,2.17
2022-10-06T07:45:13.829Z,2.03
2022-10-06T07:47:42.313Z,2.30
2022-10-06T07:50:13.310Z,2.20
2022-10-06T07:52:41.223Z,2.40
2022-10-06T07:55:09.858Z,2.10
2022-10-06T07:58:02.589Z,2.23
2022-10-06T08:00:30.674Z,2.30
2022-10-06T08:02:58.591Z,3.80
2022-10-06T08:05:26.723Z,4.03
2022-10-06T08:07:55.270Z,4.07
2022-10-06T08:10:23.224Z,4.70
2022-10-06T08:12:51.245Z,4.97
2022-10-06T08:15:19.328Z,5.07
2022-10-06T08:17:47.285Z,4.90
2022-10-06T08:20:17.455Z,4.93
2022-10-06T08:22:46.470Z,7.23
2022-10-06T08:25:14.687Z,7.97
2022-10-06T08:27:44.343Z,9.30
2022-10-06T08:30:12.868Z,6.30
2022-10-06T08:32:43.247Z,8.53
2022-10-06T08:35:12.179Z,4.70
2022-10-06T08:37:39.942Z,4.33
2022-10-06T08:40:08.438Z,4.13
2022-10-06T08:42:39.208Z,3.60
2022-10-06T08:45:19.540Z,3.30
2022-10-06T08:47:56.563Z,3.10
2022-10-06T08:50:27.114Z,3.23
2022-10-06T08:52:58.048Z,2.87
2022-10-06T08:55:29.014Z,3.10
2022-10-06T08:58:06.234Z,2.80
2022-10-06T09:00:34.711Z,2.73
2022-10-06T09:03:02.654Z,2.50
2022-10-06T09:05:32.269Z,2.40
2022-10-06T09:08:16.641Z,2.63
2022-10-06T09:10:44.893Z,2.40
2022-10-06T09:13:22.348Z,2.47
2022-10-06T09:16:11.223Z,2.47
2022-10-06T09:19:08.323Z,1.90
2022-10-06T09:22:06.633Z,1.57
2022-10-06T09:24:40.500Z,2.00
2022-10-06T09:27:19.696Z,1.70
2022-10-06T09:29:51.137Z,1.87
2022-10-06T09:32:20.353Z,2.00
2022-10-06T09:35:02.927Z,1.70
2022-10-06T09:37:50.786Z,1.80
2022-10-06T09:40:54.173Z,1.70
2022-10-06T09:43:29.844Z,1.70
2022-10-06T09:46:18.043Z,1.50
2022-10-06T09:48:45.932Z,1.47
2022-10-06T09:51:15.811Z,1.30
2022-10-06T09:53:44.466Z,1.30
2022-10-06T09:56:19.022Z,1.30
2022-10-06T09:58:57.661Z,1.10
2022-10-06T10:01:26.873Z,1.03
2022-10-06T10:06:46.266Z,1.10
2022-10-06T10:09:16.681Z,1.10
2022-10-06T10:12:05.660Z,1.10
2022-10-06T10:14:37.811Z,1.20
2022-10-06T10:17:10.750Z,1.00
2022-10-06T10:19:43.687Z,1.20
2022-10-06T10:22:22.918Z,1.27
2022-10-06T10:24:50.802Z,1.40
2022-10-06T10:27:24.073Z,1.10
2022-10-06T10:30:18.115Z,1.20
2022-10-06T10:33:08.182Z,1.10
2022-10-06T10:35:42.141Z,0.90
2022-10-06T10:38:14.918Z,1.30
2022-10-06T10:40:48.413Z,0.93
2022-10-06T10:43:35.044Z,1.20
2022-10-06T10:46:02.999Z,1.00
2022-10-06T10:48:37.547Z,1.20
2022-10-06T10:51:10.697Z,1.13
2022-10-06T10:53:47.754Z,3.07
2022-10-06T10:56:19.810Z,1.43
2022-10-06T10:58:49.293Z,1.00
2022-10-06T11:01:20.384Z,1.00
2022-10-06T11:03:59.359Z,1.40
2022-10-06T11:06:47.280Z,1.30
2022-10-06T11:09:19.156Z,0.90
2022-10-06T11:12:11.806Z,1.00
2022-10-06T11:14:59.770Z,2.60
2022-10-06T11:17:45.289Z,1.80
2022-10-06T11:20:13.287Z,1.00
2022-10-06T11:23:08.490Z,1.00
2022-10-06T11:25:44.070Z,1.00
2022-10-06T11:28:21.796Z,1.07
2022-10-06T11:31:00.373Z,1.10
2022-10-06T11:33:31.286Z,1.00
2022-10-06T11:35:59.189Z,1.20
2022-10-06T11:38:42.066Z,1.00
2022-10-06T11:41:14.018Z,1.40
2022-10-06T11:43:41.896Z,1.10
2022-10-06T11:46:09.857Z,1.17
2022-10-06T11:48:37.851Z,1.10
2022-10-06T11:51:17.932Z,1.20
2022-10-06T11:53:46.127Z,0.97
2022-10-06T11:56:20.120Z,1.03
2022-10-06T11:58:51.248Z,1.10
2022-10-06T12:01:35.767Z,1.20
2022-10-06T12:04:06.739Z,1.00
2022-10-06T12:06:55.391Z,1.20
2022-10-06T12:09:43.782Z,1.10
2022-10-06T12:12:12.650Z,0.90
2022-10-06T12:17:32.115Z,1.07
2022-10-06T12:20:12.365Z,1.37
2022-10-06T12:22:44.976Z,1.40
2022-10-06T12:25:12.959Z,1.30
2022-10-06T12:27:50.027Z,1.20
2022-10-06T12:30:21.934Z,0.90
2022-10-06T12:32:54.383Z,1.13
2022-10-06T12:35:31.687Z,1.70
2022-10-06T12:38:05.093Z,1.30
2022-10-06T12:40:49.614Z,1.20
2022-10-06T12:43:23.195Z,0.90
2022-10-06T12:45:59.535Z,1.08
2022-10-06T12:48:46.243Z,0.80
2022-10-06T12:51:14.134Z,0.80
2022-10-06T12:53:55.244Z,0.90
2022-10-06T12:56:32.790Z,1.27
2022-10-06T12:59:20.540Z,0.95
2022-10-06T13:01:52.735Z,0.70
2022-10-06T13:04:35.966Z,0.93
2022-10-06T13:07:08.611Z,1.00
2022-10-06T13:09:37.624Z,0.90
2022-10-06T13:12:24.969Z,1.00
2022-10-06T13:15:11.102Z,0.82
2022-10-06T13:17:44.200Z,1.00
2022-10-06T13:20:38.586Z,0.95
2022-10-06T13:23:21.611Z,1.00
2022-10-06T13:25:51.302Z,1.10
2022-10-06T13:28:39.651Z,0.90
2022-10-06T13:31:23.184Z,0.90
2022-10-06T13:33:53.547Z,1.00
2022-10-06T13:36:23.766Z,0.70
2022-10-06T13:38:51.792Z,1.00
2022-10-06T13:41:19.629Z,0.90
2022-10-06T13:43:52.581Z,1.00
2022-10-06T13:46:22.604Z,1.00
2022-10-06T13:48:52.694Z,1.02
2022-10-06T13:51:30.080Z,0.80
2022-10-06T13:53:59.298Z,0.80
2022-10-06T13:58:57.197Z,0.70
2022-10-06T14:01:31.769Z,1.20
2022-10-06T14:04:15.913Z,0.80
2022-10-06T14:07:03.965Z,1.10
2022-10-06T14:09:33.155Z,0.88
2022-10-06T14:12:06.573Z,0.90
2022-10-06T14:14:34.762Z,1.00
2022-10-06T14:17:02.704Z,0.90
2022-10-06T14:19:35.819Z,0.82
2022-10-06T14:22:04.658Z,0.80
2022-10-06T14:24:37.729Z,0.80
2022-10-06T14:27:07.014Z,0.80
2022-10-06T14:29:36.291Z,0.90
2022-10-06T14:32:08.230Z,0.80
2022-10-06T14:34:36.154Z,0.80
2022-10-06T14:37:04.023Z,0.80
2022-10-06T14:39:31.947Z,1.00
2022-10-06T14:42:00.759Z,0.90
2022-10-06T14:44:28.670Z,0.90
2022-10-06T14:46:56.628Z,0.70
2022-10-06T14:49:26.134Z,0.95
2022-10-06T14:51:57.423Z,0.82
2022-10-06T14:54:25.556Z,0.82
2022-10-06T14:56:53.839Z,0.90
2022-10-06T14:59:22.673Z,1.00
2022-10-06T15:01:50.681Z,0.82
2022-10-06T15:04:26.736Z,0.73
2022-10-06T15:07:13.420Z,0.90
2022-10-06T15:09:43.054Z,0.80
2022-10-06T15:12:11.039Z,0.80
2022-10-06T15:14:40.111Z,0.90
2022-10-06T15:17:08.134Z,1.10
2022-10-06T15:19:36.075Z,0.82
2022-10-06T15:22:06.158Z,0.90
2022-10-06T15:24:34.207Z,0.93
2022-10-06T15:27:24.695Z,0.90
2022-10-06T15:29:53.068Z,0.80
2022-10-06T15:32:21.147Z,0.90
2022-10-06T15:34:48.953Z,0.82
2022-10-06T15:37:17.099Z,0.80
2022-10-06T15:39:47.006Z,0.98
2022-10-06T15:42:18.898Z,0.80
2022-10-06T15:44:47.061Z,0.82
2022-10-06T15:47:15.103Z,0.80
2022-10-06T15:49:43.027Z,0.90
2022-10-06T15:52:13.389Z,0.90
2022-10-06T15:54:41.982Z,0.90
2022-10-06T15:57:13.050Z,0.82
2022-10-06T15:59:44.775Z,1.00
2022-10-06T16:02:15.908Z,0.90
2022-10-06T16:04:44.620Z,0.90
2022-10-06T16:07:17.093Z,0.93
2022-10-06T16:09:48.126Z,0.88
2022-10-06T16:12:21.578Z,0.90
2022-10-06T16:14:49.712Z,0.90
2022-10-06T16:17:17.872Z,0.90
2022-10-06T16:19:47.391Z,0.80
2022-10-06T16:22:16.717Z,0.70
2022-10-06T16:24:44.561Z,1.10
2022-10-06T16:27:16.469Z,1.00
2022-10-06T16:29:44.497Z,0.75
2022-10-06T16:32:12.394Z,0.90
2022-10-06T16:34:40.239Z,0.90
2022-10-06T16:37:08.220Z,0.90
2022-10-06T16:39:36.015Z,1.00
2022-10-06T16:42:04.373Z,0.90
2022-10-06T16:44:32.444Z,0.90
2022-10-06T16:47:00.495Z,0.98
2022-10-06T16:49:28.625Z,0.75
2022-10-06T16:51:57.320Z,0.95
2022-10-06T16:54:25.311Z,0.90
2022-10-06T16:56:55.129Z,0.90
2022-10-06T16:59:26.190Z,1.23
2022-10-06T17:01:54.453Z,1.10
2022-10-06T17:04:23.953Z,0.77
2022-10-06T17:06:53.117Z,0.80
2022-10-06T17:09:22.108Z,1.00
2022-10-06T17:11:51.453Z,0.90
2022-10-06T17:14:19.802Z,0.90
2022-10-06T17:16:48.566Z,0.80
2022-10-06T17:19:17.416Z,0.80
2022-10-06T17:21:48.109Z,0.90
2022-10-06T17:24:18.302Z,1.00
2022-10-06T17:26:50.155Z,0.85
2022-10-06T17:29:21.905Z,1.13
2022-10-06T17:31:51.032Z,1.10
2022-10-06T17:34:21.886Z,0.90
2022-10-06T17:36:52.233Z,1.40
2022-10-06T17:39:21.547Z,1.10
2022-10-06T17:41:50.874Z,0.88
2022-10-06T17:44:23.657Z,0.75
2022-10-06T17:46:53.198Z,0.80
2022-10-06T17:49:22.209Z,0.90
2022-10-06T17:51:50.588Z,1.00
2022-10-06T17:54:20.995Z,1.90
2022-10-06T17:56:49.739Z,1.20
2022-10-06T17:59:20.317Z,1.10
2022-10-06T18:01:48.432Z,1.15
2022-10-06T18:04:16.729Z,1.05
2022-10-06T18:06:45.657Z,1.20
2022-10-06T18:09:13.749Z,0.90
2022-10-06T18:11:48.459Z,1.02
2022-10-06T18:14:18.026Z,1.20
2022-10-06T18:16:45.996Z,1.02
2022-10-06T18:19:14.177Z,0.90
2022-10-06T18:21:43.002Z,0.90
2022-10-06T18:24:16.763Z,1.00
2022-10-06T18:26:49.030Z,0.95
2022-10-06T18:29:18.066Z,0.98
2022-10-06T18:31:46.621Z,1.20
2022-10-06T18:37:03.173Z,1.00
2022-10-06T18:39:32.430Z,1.00
2022-10-06T18:42:03.261Z,1.00
2022-10-06T18:44:49.556Z,1.10
2022-10-06T18:47:35.953Z,1.00
2022-10-06T18:50:04.313Z,1.00
2022-10-06T18:52:32.381Z,1.08
2022-10-06T18:55:00.654Z,1.10
2022-10-06T18:57:28.598Z,1.00
2022-10-06T18:59:56.787Z,1.00
2022-10-06T19:02:26.564Z,1.17
2022-10-06T19:04:54.570Z,1.20
2022-10-06T19:07:22.760Z,1.07
2022-10-06T19:09:50.605Z,1.10
2022-10-06T19:12:19.197Z,0.90
2022-10-06T19:14:50.655Z,0.90
2022-10-06T19:17:18.790Z,1.00
2022-10-06T19:19:51.635Z,1.07
2022-10-06T19:22:24.914Z,1.03
2022-10-06T19:24:53.302Z,0.73
2022-10-06T19:27:25.291Z,1.00
2022-10-06T19:29:54.584Z,1.10
2022-10-06T19:32:24.289Z,0.90
2022-10-06T19:34:52.611Z,1.00
2022-10-06T19:37:20.497Z,1.00
2022-10-06T19:39:50.406Z,1.00
2022-10-06T19:42:38.289Z,0.80
2022-10-06T19:45:06.869Z,1.00
2022-10-06T19:47:34.721Z,0.90
2022-10-06T19:50:10.427Z,1.10
2022-10-06T19:52:40.096Z,0.97
2022-10-06T19:55:07.976Z,1.07
2022-10-06T19:57:35.999Z,1.00
2022-10-06T20:00:05.256Z,1.00
2022-10-06T20:02:43.179Z,1.00
2022-10-06T20:05:12.395Z,0.90
2022-10-06T20:07:40.724Z,1.00
2022-10-06T20:10:09.107Z,1.10
2022-10-06T20:12:38.539Z,1.20
2022-10-06T20:15:07.143Z,1.00
2022-10-06T20:17:35.587Z,1.20
2022-10-06T20:20:04.624Z,1.10
2022-10-06T20:22:32.527Z,1.20
2022-10-06T20:25:02.160Z,1.20
2022-10-06T20:27:30.222Z,1.20
2022-10-06T20:29:58.420Z,1.10
2022-10-06T20:32:26.397Z,1.07
2022-10-06T20:34:54.328Z,1.10
2022-10-06T20:37:22.214Z,1.20
2022-10-06T20:40:08.484Z,0.90
2022-10-06T20:42:36.339Z,1.10
2022-10-06T20:45:04.345Z,1.03
2022-10-06T20:47:32.835Z,1.10
2022-10-06T20:50:00.923Z,1.10
2022-10-06T20:52:29.683Z,1.03
2022-10-06T20:54:57.555Z,0.93
2022-10-06T20:57:30.186Z,1.00
2022-10-06T21:00:00.843Z,1.20
2022-10-06T21:02:28.719Z,1.20
2022-10-06T21:04:57.621Z,1.13
2022-10-06T21:07:25.510Z,1.10
2022-10-06T21:09:53.368Z,0.90
2022-10-06T21:12:23.986Z,1.10
2022-10-06T21:14:52.078Z,1.10
2022-10-06T21:17:20.621Z,1.07
2022-10-06T21:19:48.526Z,1.13
2022-10-06T21:22:16.405Z,1.30
2022-10-06T21:24:44.271Z,1.00
2022-10-06T21:27:12.179Z,1.10
2022-10-06T21:29:40.043Z,1.10
2022-10-06T21:32:09.928Z,1.20
2022-10-06T21:34:39.505Z,0.97
2022-10-06T21:37:07.475Z,1.07
2022-10-06T21:39:35.305Z,1.10
2022-10-06T21:42:03.217Z,1.10
2022-10-06T21:44:31.136Z,1.20
2022-10-06T21:47:03.183Z,1.30
2022-10-06T21:49:31.345Z,1.27
2022-10-06T21:52:03.799Z,1.20
2022-10-06T21:54:32.136Z,1.20
2022-10-06T21:57:00.131Z,1.10
2022-10-06T21:59:27.998Z,1.20
2022-10-06T22:01:57.089Z,1.40
2022-10-06T22:04:25.022Z,1.20
2022-10-06T22:06:52.984Z,1.10
2022-10-06T22:09:21.561Z,0.90
2022-10-06T22:11:49.749Z,1.17
2022-10-06T22:14:18.392Z,1.27
2022-10-06T22:16:46.485Z,1.20
2022-10-06T22:19:15.215Z,1.30
2022-10-06T22:21:44.000Z,1.50
2022-10-06T22:24:13.758Z,1.20
2022-10-06T22:26:42.398Z,1.40
2022-10-06T22:29:11.728Z,1.20
2022-10-06T22:31:40.802Z,1.30
2022-10-06T22:34:10.414Z,1.20
2022-10-06T22:36:38.367Z,1.30
2022-10-06T22:39:06.337Z,1.27
2022-10-06T22:41:34.286Z,1.20
2022-10-06T22:44:02.241Z,1.40
2022-10-06T22:46:31.623Z,1.30
2022-10-06T22:49:00.093Z,1.30
2022-10-06T22:51:28.194Z,1.10
2022-10-06T22:53:58.511Z,1.30
2022-10-06T22:56:27.465Z,1.40
2022-10-06T22:58:55.473Z,1.20
2022-10-06T23:01:23.637Z,1.10
2022-10-06T23:03:51.492Z,1.20
2022-10-06T23:06:19.462Z,1.30
2022-10-06T23:08:47.222Z,1.30
2022-10-06T23:11:16.272Z,1.30
2022-10-06T23:13:44.816Z,1.20
2022-10-06T23:16:13.921Z,1.20
2022-10-06T23:18:42.567Z,1.17
2022-10-06T23:21:11.344Z,1.27
2022-10-06T23:23:39.289Z,1.30
2022-10-06T23:26:11.601Z,1.17
2022-10-06T23:28:39.870Z,1.20
2022-10-06T23:31:08.735Z,1.20
2022-10-06T23:33:37.181Z,1.30
2022-10-06T23:36:09.277Z,1.30
2022-10-06T23:38:38.041Z,1.20
2022-10-06T23:41:06.565Z,1.20
2022-10-06T23:43:34.626Z,1.13
2022-10-06T23:46:02.953Z,1.50
2022-10-06T23:48:31.155Z,1.30
2022-10-06T23:51:09.750Z,1.23
2022-10-06T23:53:37.666Z,1.10
2022-10-06T23:56:05.963Z,1.50
2022-10-06T23:58:33.965Z,1.00
